Terminal Aerodrome Forecast
Issued by NWS Pocatello, ID

Home | Current Version | Previous Version | Text Only | Print | Product List | Glossary On
Versions: 1 2 3 4 5 6 7 8 9 10 11 12 13 14 15 16 17 18 19 20 21
616
FTUS45 KPIH 210741 AAA
TAFBYI
TAF AMD
KBYI 210741Z 2108/2206 01004KT 6SM BR SCT020 OVC060
      TEMPO 2109/2112 5SM -SHSN BR BKN015 OVC030
     FM211800 27012KT P6SM SCT020
     FM220000 27007KT P6SM SCT020=

USA.gov is the U.S. government's official web portal to all federal, state and local government web resources and services.